Boston, Massachusetts
Traffic Map
Current Weather Conditions
Boston, Massachusetts
Clear
Clear
-4°
Feels Like: -9°
Wind Chill: -9° Ceiling: Unl
Heat Index: -4° Visibility: 10mi
Dew Point: -16° Wind: 9mph
Humidity: 39% Direction: 270° (W)
Pressure: 30.7in Gusts: 0mph
Raw Report DataKBOS 010354Z 27008KT 10SM CLR M04/M16 A3070 RMK AO2 SLP394 T10391161
Traffic Incident Summary
Active as of:
Severity:
Category:
InformationThere was an issue retrieving the traffic information for this location. Please try a different location or try again shortly.
Advertisements
Track Severe Weather on mobile